Time;durP1;ratioP1;P1;durP2;ratioP2;P2;SDS_P1;SDS_P2;PMS_P1;PMS_P2;Temp;Humidity;BMP_temperature;BMP_pressure;BME280_temperature;BME280_humidity;BME280_pressure;Samples;Min_cycle;Max_cycle;Signal;HPM_P1;HPM_P2
2022/09/18 00:02:09;;;;;;;4.07;0.98;;;;;;;;;;5007457;28;20054;-59
2022/09/18 00:04:37;;;;;;;9.55;1.15;;;;;;;;;;5003986;28;20050;-62
2022/09/18 00:07:03;;;;;;;4.57;0.80;;;;;;;;;;5008888;28;20061;-64
2022/09/18 00:09:31;;;;;;;3.97;0.80;;;;;;;;;;5003904;28;20367;-69
2022/09/18 00:11:59;;;;;;;4.55;0.80;;;;;;;;;;5008455;28;20137;-66
2022/09/18 00:14:26;;;;;;;7.13;1.00;;;;;;;;;;4990917;28;20061;-69
2022/09/18 00:16:52;;;;;;;4.63;0.80;;;;;;;;;;4989193;28;20133;-67
2022/09/18 00:19:19;;;;;;;2.40;0.80;;;;;;;;;;5013471;28;20350;-67
2022/09/18 00:21:47;;;;;;;1.67;0.77;;;;;;;;;;5008096;28;20050;-60
2022/09/18 00:24:16;;;;;;;8.88;1.08;;;;;;;;;;5018082;28;20100;-70
2022/09/18 00:26:44;;;;;;;5.95;0.80;;;;;;;;;;4989076;28;20055;-69
2022/09/18 00:29:11;;;;;;;4.05;0.98;;;;;;;;;;4987679;28;20516;-72
2022/09/18 00:31:38;;;;;;;7.30;1.10;;;;;;;;;;4988031;28;20058;-63
2022/09/18 00:34:06;;;;;;;4.18;0.80;;;;;;;;;;4985286;28;20050;-64
2022/09/18 00:36:33;;;;;;;2.85;0.82;;;;;;;;;;5004375;28;20160;-69
2022/09/18 00:38:59;;;;;;;9.43;1.10;;;;;;;;;;5013498;28;20151;-60
2022/09/18 00:41:27;;;;;;;3.40;0.70;;;;;;;;;;5007999;28;20050;-64
2022/09/18 00:43:57;;;;;;;3.35;0.70;;;;;;;;;;4993237;28;20050;-69
2022/09/18 00:46:25;;;;;;;3.28;0.80;;;;;;;;;;4991186;28;20049;-70
2022/09/18 00:48:57;;;;;;;2.53;0.77;;;;;;;;;;4992383;28;20050;-67
2022/09/18 00:51:24;;;;;;;6.10;0.70;;;;;;;;;;4990522;28;20057;-69
2022/09/18 00:53:56;;;;;;;6.77;1.03;;;;;;;;;;4994083;28;20066;-69
2022/09/18 00:56:22;;;;;;;4.82;0.85;;;;;;;;;;5005707;28;20053;-68
2022/09/18 00:58:49;;;;;;;3.33;0.77;;;;;;;;;;5011488;28;20115;-66
2022/09/18 01:01:17;;;;;;;2.83;0.60;;;;;;;;;;5006576;28;20053;-66
2022/09/18 01:03:44;;;;;;;6.97;0.80;;;;;;;;;;5010709;28;20056;-65
2022/09/18 01:06:13;;;;;;;5.43;0.80;;;;;;;;;;5005942;28;20049;-68
2022/09/18 01:08:45;;;;;;;2.53;0.75;;;;;;;;;;5011189;28;20119;-70
2022/09/18 01:11:20;;;;;;;3.72;0.65;;;;;;;;;;5005413;28;20060;-60
2022/09/18 01:13:53;;;;;;;4.97;0.80;;;;;;;;;;5007452;28;20050;-72
2022/09/18 01:16:25;;;;;;;2.90;0.80;;;;;;;;;;4989418;28;20042;-74
2022/09/18 01:18:56;;;;;;;3.88;0.73;;;;;;;;;;4991931;28;20061;-66
2022/09/18 01:21:30;;;;;;;5.10;0.80;;;;;;;;;;4988288;28;20116;-61
2022/09/18 01:24:21;;;;;;;3.10;0.80;;;;;;;;;;5008880;28;20065;-67
2022/09/18 01:26:54;;;;;;;5.95;0.73;;;;;;;;;;4972827;28;20196;-61
2022/09/18 01:29:30;;;;;;;3.10;0.60;;;;;;;;;;4991458;28;20120;-65
2022/09/18 01:32:01;;;;;;;2.28;0.70;;;;;;;;;;4987761;28;20054;-61
2022/09/18 01:34:31;;;;;;;4.45;0.70;;;;;;;;;;4991406;28;20104;-60
2022/09/18 01:37:01;;;;;;;4.28;0.95;;;;;;;;;;4987970;28;20097;-66
2022/09/18 01:39:30;;;;;;;3.63;0.70;;;;;;;;;;5008539;28;20076;-64
2022/09/18 01:41:59;;;;;;;6.68;0.93;;;;;;;;;;5020341;28;20049;-71
2022/09/18 01:44:28;;;;;;;4.05;0.80;;;;;;;;;;5006621;28;20131;-60
2022/09/18 01:46:56;;;;;;;1.10;0.60;;;;;;;;;;5001327;28;20049;-68
2022/09/18 01:49:23;;;;;;;2.40;0.57;;;;;;;;;;4991151;28;20046;-65
2022/09/18 01:51:52;;;;;;;4.40;0.50;;;;;;;;;;4986119;28;20061;-59
2022/09/18 01:54:23;;;;;;;5.07;0.63;;;;;;;;;;4987380;28;20054;-63
2022/09/18 01:56:52;;;;;;;3.85;0.52;;;;;;;;;;4985478;28;20054;-63
2022/09/18 01:59:20;;;;;;;2.90;0.75;;;;;;;;;;4987575;28;20077;-69
2022/09/18 02:01:49;;;;;;;5.30;1.13;;;;;;;;;;4986308;28;20066;-61
2022/09/18 02:04:18;;;;;;;3.25;0.65;;;;;;;;;;4983803;28;20062;-65
2022/09/18 02:06:49;;;;;;;2.72;0.65;;;;;;;;;;4986423;28;20122;-66
2022/09/18 02:09:16;;;;;;;3.40;0.57;;;;;;;;;;4982727;28;20104;-54
2022/09/18 02:11:45;;;;;;;3.50;0.82;;;;;;;;;;4990139;28;20073;-73
2022/09/18 02:14:13;;;;;;;3.17;0.65;;;;;;;;;;4972901;28;20170;-67
2022/09/18 02:16:42;;;;;;;3.70;0.88;;;;;;;;;;4969503;28;20050;-70
2022/09/18 02:19:15;;;;;;;1.90;0.52;;;;;;;;;;4950513;28;20082;-64
2022/09/18 02:21:42;;;;;;;3.85;0.80;;;;;;;;;;4986904;28;20062;-64
2022/09/18 02:24:10;;;;;;;5.28;0.85;;;;;;;;;;4994910;28;20054;-66
2022/09/18 02:26:41;;;;;;;1.07;0.47;;;;;;;;;;5010230;28;20073;-63
2022/09/18 02:29:09;;;;;;;3.15;0.55;;;;;;;;;;4996821;28;20062;-72
2022/09/18 02:31:36;;;;;;;5.43;0.70;;;;;;;;;;4990289;28;20065;-58
2022/09/18 02:34:03;;;;;;;3.28;0.90;;;;;;;;;;4993461;28;20061;-67
2022/09/18 02:36:51;;;;;;;5.30;0.80;;;;;;;;;;5010080;28;20054;-70
2022/09/18 02:39:27;;;;;;;5.43;0.93;;;;;;;;;;4993100;28;20051;-72
2022/09/18 02:41:59;;;;;;;5.30;0.65;;;;;;;;;;4990797;28;20157;-65
2022/09/18 02:44:31;;;;;;;2.42;0.55;;;;;;;;;;5005362;28;20057;-62
2022/09/18 02:47:05;;;;;;;2.78;0.73;;;;;;;;;;5010002;28;20119;-71
2022/09/18 02:49:41;;;;;;;6.45;0.90;;;;;;;;;;5000436;28;20050;-66
2022/09/18 02:52:12;;;;;;;4.47;0.65;;;;;;;;;;5046336;23;20066;-56
2022/09/18 02:54:42;;;;;;;4.78;0.70;;;;;;;;;;4956406;28;20145;-69
2022/09/18 02:57:12;;;;;;;2.53;0.73;;;;;;;;;;4969458;28;20114;-71
2022/09/18 02:59:42;;;;;;;2.40;0.65;;;;;;;;;;4964697;28;20055;-69
2022/09/18 03:02:09;;;;;;;5.65;0.82;;;;;;;;;;4961554;28;20069;-64
2022/09/18 03:04:35;;;;;;;6.90;0.80;;;;;;;;;;4978936;28;20093;-68
2022/09/18 03:07:02;;;;;;;5.20;0.75;;;;;;;;;;4955359;28;20093;-64
2022/09/18 03:09:29;;;;;;;3.80;0.70;;;;;;;;;;4964566;28;20063;-70
2022/09/18 03:11:57;;;;;;;2.17;0.70;;;;;;;;;;4957372;28;20058;-60
2022/09/18 03:14:23;;;;;;;4.53;0.82;;;;;;;;;;4969188;28;20054;-63
2022/09/18 03:16:50;;;;;;;3.58;0.63;;;;;;;;;;4977607;28;20050;-63
2022/09/18 03:19:17;;;;;;;7.95;0.98;;;;;;;;;;4965688;28;20151;-72
2022/09/18 03:21:44;;;;;;;3.97;0.55;;;;;;;;;;4967506;28;20086;-66
2022/09/18 03:24:11;;;;;;;4.35;0.60;;;;;;;;;;4954317;28;20046;-57
2022/09/18 03:26:38;;;;;;;4.70;0.68;;;;;;;;;;4969274;28;20146;-65
2022/09/18 03:29:08;;;;;;;5.35;0.80;;;;;;;;;;4957385;28;20105;-58
2022/09/18 03:31:35;;;;;;;1.33;0.50;;;;;;;;;;4962229;28;20046;-56
2022/09/18 03:34:02;;;;;;;4.18;0.70;;;;;;;;;;4973060;28;20050;-62
2022/09/18 03:36:29;;;;;;;5.60;0.70;;;;;;;;;;4965044;28;20087;-69
2022/09/18 03:38:55;;;;;;;2.90;0.50;;;;;;;;;;4959254;28;20119;-63
2022/09/18 03:41:22;;;;;;;6.40;0.88;;;;;;;;;;4958101;28;28678;-70
2022/09/18 03:43:50;;;;;;;3.53;0.90;;;;;;;;;;4983991;28;20054;-67
2022/09/18 03:46:22;;;;;;;2.88;0.60;;;;;;;;;;4978150;28;20073;-59
2022/09/18 03:48:48;;;;;;;5.35;0.52;;;;;;;;;;4966423;28;20081;-62
2022/09/18 03:51:15;;;;;;;2.67;0.55;;;;;;;;;;4970105;28;20070;-62
2022/09/18 03:53:44;;;;;;;1.10;0.38;;;;;;;;;;4941676;28;20062;-57
2022/09/18 03:56:10;;;;;;;3.50;0.70;;;;;;;;;;4946358;28;20090;-66
2022/09/18 03:58:37;;;;;;;1.75;0.57;;;;;;;;;;4950345;28;20063;-64
2022/09/18 04:01:03;;;;;;;2.05;0.57;;;;;;;;;;4949820;28;20105;-67
2022/09/18 04:03:31;;;;;;;3.78;0.60;;;;;;;;;;4950588;28;20046;-70
2022/09/18 04:05:58;;;;;;;3.55;0.60;;;;;;;;;;4956551;28;20051;-63
2022/09/18 04:08:24;;;;;;;3.95;0.55;;;;;;;;;;4948785;28;20111;-66
2022/09/18 04:10:52;;;;;;;3.95;0.77;;;;;;;;;;4951416;29;20063;-59
2022/09/18 04:13:19;;;;;;;2.10;0.52;;;;;;;;;;4957374;28;20062;-66
2022/09/18 04:15:49;;;;;;;1.50;0.40;;;;;;;;;;4959778;28;20091;-66
2022/09/18 04:18:15;;;;;;;3.88;0.45;;;;;;;;;;4960364;28;20077;-62
2022/09/18 04:20:43;;;;;;;4.63;0.52;;;;;;;;;;4945532;28;20122;-65
2022/09/18 04:23:11;;;;;;;2.75;0.50;;;;;;;;;;4946269;28;20046;-72
2022/09/18 04:25:38;;;;;;;2.45;0.70;;;;;;;;;;4933887;29;20067;-66
2022/09/18 04:28:04;;;;;;;2.92;0.70;;;;;;;;;;4928903;29;20059;-73
2022/09/18 04:30:31;;;;;;;0.68;0.50;;;;;;;;;;4939319;29;20062;-72
2022/09/18 04:32:57;;;;;;;3.13;0.47;;;;;;;;;;4946363;29;20109;-70
2022/09/18 04:35:24;;;;;;;2.97;0.60;;;;;;;;;;4928720;29;20044;-73
2022/09/18 04:37:52;;;;;;;1.77;0.50;;;;;;;;;;4929911;29;20059;-73
2022/09/18 04:40:19;;;;;;;2.60;0.50;;;;;;;;;;4926804;29;20055;-65
2022/09/18 04:42:46;;;;;;;2.22;0.55;;;;;;;;;;4936673;29;20322;-63
2022/09/18 04:45:15;;;;;;;5.15;0.82;;;;;;;;;;4944479;29;20051;-65
2022/09/18 04:47:43;;;;;;;5.38;0.65;;;;;;;;;;4948944;28;20177;-65
2022/09/18 04:50:10;;;;;;;2.83;0.65;;;;;;;;;;4944825;29;20059;-54
2022/09/18 04:52:36;;;;;;;4.30;0.43;;;;;;;;;;4957905;28;20146;-61
2022/09/18 04:55:06;;;;;;;3.25;0.70;;;;;;;;;;4948363;28;20063;-65
2022/09/18 04:57:34;;;;;;;0.47;0.30;;;;;;;;;;4949094;29;20118;-63
2022/09/18 05:00:01;;;;;;;3.50;0.85;;;;;;;;;;4951119;28;20066;-65
2022/09/18 05:02:28;;;;;;;1.83;0.40;;;;;;;;;;4969673;28;20066;-68
2022/09/18 05:04:55;;;;;;;0.95;0.50;;;;;;;;;;4963803;28;20050;-66
2022/09/18 05:07:22;;;;;;;3.58;0.70;;;;;;;;;;4968170;28;20142;-67
2022/09/18 05:09:51;;;;;;;1.50;0.30;;;;;;;;;;4960928;28;20101;-65
2022/09/18 05:12:18;;;;;;;4.15;0.70;;;;;;;;;;4948558;29;20066;-69
2022/09/18 05:14:46;;;;;;;0.73;0.50;;;;;;;;;;4945954;28;20059;-71
2022/09/18 05:17:13;;;;;;;2.42;0.60;;;;;;;;;;4968042;28;20074;-70
2022/09/18 05:19:40;;;;;;;3.20;0.50;;;;;;;;;;4967592;28;20054;-67
2022/09/18 05:22:07;;;;;;;1.95;0.70;;;;;;;;;;4943972;28;20065;-74
2022/09/18 05:24:34;;;;;;;1.90;0.45;;;;;;;;;;4947750;28;20051;-68
2022/09/18 05:27:00;;;;;;;1.50;0.50;;;;;;;;;;4960678;28;20054;-72
2022/09/18 05:29:28;;;;;;;3.90;0.60;;;;;;;;;;4967599;28;20054;-69
2022/09/18 05:31:55;;;;;;;3.03;0.40;;;;;;;;;;4962391;28;20057;-64
2022/09/18 05:34:22;;;;;;;3.42;0.60;;;;;;;;;;4967209;28;20069;-72
2022/09/18 05:36:48;;;;;;;5.85;0.60;;;;;;;;;;4962108;28;20051;-67
2022/09/18 05:39:15;;;;;;;1.10;0.45;;;;;;;;;;4966786;28;20055;-61
2022/09/18 05:41:41;;;;;;;1.95;0.57;;;;;;;;;;4955221;28;20081;-67
2022/09/18 05:44:08;;;;;;;4.28;0.40;;;;;;;;;;4966798;28;20054;-71
2022/09/18 05:46:36;;;;;;;1.15;0.45;;;;;;;;;;4962551;28;20066;-63
2022/09/18 05:49:05;;;;;;;3.40;0.40;;;;;;;;;;4967386;28;20105;-75
2022/09/18 05:51:31;;;;;;;2.35;0.52;;;;;;;;;;4956065;28;20050;-65
2022/09/18 05:53:58;;;;;;;2.15;0.47;;;;;;;;;;4949522;28;20058;-60
2022/09/18 05:56:26;;;;;;;2.38;0.40;;;;;;;;;;4947721;28;20090;-64
2022/09/18 05:58:53;;;;;;;1.50;0.60;;;;;;;;;;4971639;28;20054;-74
2022/09/18 06:01:19;;;;;;;2.85;0.52;;;;;;;;;;4965147;28;20054;-73
2022/09/18 06:03:50;;;;;;;2.15;0.40;;;;;;;;;;4970921;28;20081;-66
2022/09/18 06:06:17;;;;;;;1.90;0.40;;;;;;;;;;4974079;28;20136;-57
2022/09/18 06:08:43;;;;;;;2.63;0.50;;;;;;;;;;4970224;28;20074;-64
2022/09/18 06:11:10;;;;;;;2.63;0.47;;;;;;;;;;4973636;28;20050;-56
2022/09/18 06:13:37;;;;;;;0.63;0.35;;;;;;;;;;4969908;28;20050;-69
2022/09/18 06:16:04;;;;;;;0.43;0.32;;;;;;;;;;4973952;28;20066;-65
2022/09/18 06:18:30;;;;;;;3.03;0.52;;;;;;;;;;4959025;28;20149;-64
2022/09/18 06:20:59;;;;;;;5.63;0.68;;;;;;;;;;4954330;28;20157;-60
2022/09/18 06:23:26;;;;;;;2.22;0.55;;;;;;;;;;4951714;28;20059;-64
2022/09/18 06:25:56;;;;;;;3.30;0.50;;;;;;;;;;4970680;28;20061;-71
2022/09/18 06:28:23;;;;;;;2.38;0.47;;;;;;;;;;4974248;28;20055;-68
2022/09/18 06:30:50;;;;;;;1.60;0.40;;;;;;;;;;4975108;28;20063;-66
2022/09/18 06:33:16;;;;;;;1.67;0.43;;;;;;;;;;4954045;28;20082;-68
2022/09/18 06:35:47;;;;;;;1.50;0.50;;;;;;;;;;4956644;28;20055;-68
2022/09/18 06:38:15;;;;;;;3.10;0.60;;;;;;;;;;4956410;28;20046;-56
2022/09/18 06:40:47;;;;;;;0.85;0.45;;;;;;;;;;4954318;28;20058;-58
2022/09/18 06:43:14;;;;;;;1.55;0.55;;;;;;;;;;4960403;28;20054;-63
2022/09/18 06:45:41;;;;;;;4.43;0.55;;;;;;;;;;4973433;28;20054;-62
2022/09/18 06:48:08;;;;;;;0.93;0.43;;;;;;;;;;4973637;28;20050;-68
2022/09/18 06:50:34;;;;;;;2.83;0.70;;;;;;;;;;4967702;28;20125;-64
2022/09/18 06:53:01;;;;;;;1.33;0.60;;;;;;;;;;4958560;28;20059;-73
2022/09/18 06:55:30;;;;;;;4.25;0.50;;;;;;;;;;4959528;28;20142;-56
2022/09/18 06:57:57;;;;;;;2.72;0.70;;;;;;;;;;4951471;29;20497;-60
2022/09/18 07:00:23;;;;;;;2.45;0.43;;;;;;;;;;4947093;28;20055;-64
2022/09/18 07:02:54;;;;;;;2.08;0.50;;;;;;;;;;4951231;28;20062;-69
2022/09/18 07:05:21;;;;;;;2.40;0.70;;;;;;;;;;4946416;28;20055;-67
2022/09/18 07:07:47;;;;;;;2.80;0.95;;;;;;;;;;4950792;28;20062;-52
2022/09/18 07:10:14;;;;;;;1.85;0.50;;;;;;;;;;4946802;28;20047;-66
2022/09/18 07:12:45;;;;;;;0.90;0.40;;;;;;;;;;4951522;28;20059;-63
2022/09/18 07:15:12;;;;;;;3.70;0.55;;;;;;;;;;4946533;28;20058;-54
2022/09/18 07:17:39;;;;;;;2.28;0.47;;;;;;;;;;4950786;28;20086;-65
2022/09/18 07:20:06;;;;;;;1.85;0.40;;;;;;;;;;4946353;28;20055;-64
2022/09/18 07:22:32;;;;;;;2.00;0.55;;;;;;;;;;4951181;28;20071;-58
2022/09/18 07:25:03;;;;;;;2.67;0.40;;;;;;;;;;4948277;28;20061;-64
2022/09/18 07:27:30;;;;;;;1.33;0.50;;;;;;;;;;4953407;29;20052;-52
2022/09/18 07:29:58;;;;;;;0.98;0.30;;;;;;;;;;4948128;29;20138;-59
2022/09/18 07:32:25;;;;;;;4.60;0.47;;;;;;;;;;4950751;29;20133;-69
2022/09/18 07:34:54;;;;;;;0.60;0.20;;;;;;;;;;4950431;29;20121;-64
2022/09/18 07:37:21;;;;;;;0.85;0.40;;;;;;;;;;4946821;28;20194;-62
2022/09/18 07:39:48;;;;;;;3.45;0.40;;;;;;;;;;4950883;28;20059;-68
2022/09/18 07:42:15;;;;;;;2.20;0.32;;;;;;;;;;4947538;28;20051;-64
2022/09/18 07:44:42;;;;;;;4.43;0.75;;;;;;;;;;4950540;29;20067;-51
2022/09/18 07:47:11;;;;;;;0.80;0.40;;;;;;;;;;4947162;28;20119;-56
2022/09/18 07:49:37;;;;;;;;;;;;;;;;;;4947870;28;20146;-56
2022/09/18 07:52:04;;;;;;;1.98;0.40;;;;;;;;;;4946522;28;19930;-57
2022/09/18 07:54:35;;;;;;;1.40;0.45;;;;;;;;;;4951714;29;20083;-61
2022/09/18 07:57:01;;;;;;;2.45;0.50;;;;;;;;;;4947905;29;20088;-71
2022/09/18 07:59:28;;;;;;;1.77;0.57;;;;;;;;;;4950092;28;20079;-59
2022/09/18 08:01:55;;;;;;;6.10;1.17;;;;;;;;;;4945885;28;20055;-61
2022/09/18 08:04:23;;;;;;;1.38;0.70;;;;;;;;;;4949314;29;20137;-59
2022/09/18 08:06:53;;;;;;;3.72;1.00;;;;;;;;;;4945674;28;20417;-60
2022/09/18 08:09:20;;;;;;;2.03;0.70;;;;;;;;;;4947033;28;20051;-62
2022/09/18 08:11:47;;;;;;;1.23;0.47;;;;;;;;;;4945488;28;20151;-58
2022/09/18 08:14:15;;;;;;;2.70;0.60;;;;;;;;;;4948086;28;20098;-58
2022/09/18 08:16:41;;;;;;;1.70;0.50;;;;;;;;;;4944846;28;20044;-64
2022/09/18 08:19:08;;;;;;;2.40;0.70;;;;;;;;;;4965970;28;20054;-54
2022/09/18 08:21:36;;;;;;;4.80;0.47;;;;;;;;;;4948772;28;20047;-56
2022/09/18 08:24:03;;;;;;;1.17;0.40;;;;;;;;;;4938204;28;20063;-65
2022/09/18 08:26:30;;;;;;;2.10;0.38;;;;;;;;;;4958519;28;20047;-56
2022/09/18 08:28:56;;;;;;;0.60;0.52;;;;;;;;;;4934464;28;20171;-54
2022/09/18 08:31:23;;;;;;;1.75;0.55;;;;;;;;;;4939130;28;20102;-60
2022/09/18 08:33:49;;;;;;;1.70;0.60;;;;;;;;;;4937627;28;20074;-66
2022/09/18 08:36:16;;;;;;;3.45;0.50;;;;;;;;;;4956540;28;20055;-63
2022/09/18 08:38:44;;;;;;;2.13;0.70;;;;;;;;;;4936574;28;20055;-66
2022/09/18 08:41:15;;;;;;;2.42;0.50;;;;;;;;;;4939491;29;20059;-61
2022/09/18 08:43:51;;;;;;;1.05;0.50;;;;;;;;;;4938233;28;20066;-56
2022/09/18 08:46:20;;;;;;;1.92;0.75;;;;;;;;;;4959511;28;20067;-60
2022/09/18 08:48:51;;;;;;;4.38;0.60;;;;;;;;;;4936159;28;20063;-53
2022/09/18 08:51:19;;;;;;;1.15;0.68;;;;;;;;;;4938074;29;20059;-59
2022/09/18 08:53:50;;;;;;;7.40;2.20;;;;;;;;;;4953890;28;20057;-68
2022/09/18 08:56:18;;;;;;;3.83;0.93;;;;;;;;;;4959114;28;20071;-69
2022/09/18 08:58:48;;;;;;;2.60;0.80;;;;;;;;;;4956530;28;20057;-62
2022/09/18 09:01:15;;;;;;;3.55;1.00;;;;;;;;;;4973817;28;20114;-60
2022/09/18 09:03:47;;;;;;;4.22;0.73;;;;;;;;;;4953673;28;20110;-68
2022/09/18 09:06:20;;;;;;;3.45;0.90;;;;;;;;;;4976940;28;20054;-72
2022/09/18 09:09:03;;;;;;;2.13;0.82;;;;;;;;;;4972198;28;20054;-63
2022/09/18 09:11:33;;;;;;;2.53;0.80;;;;;;;;;;4959570;28;20059;-73
2022/09/18 09:14:09;;;;;;;1.77;0.40;;;;;;;;;;4963165;28;20066;-61
2022/09/18 09:16:41;;;;;;;2.20;0.60;;;;;;;;;;4948449;29;20047;-67
2022/09/18 09:19:13;;;;;;;2.67;0.77;;;;;;;;;;4956314;28;20050;-68
2022/09/18 09:21:45;;;;;;;6.55;0.70;;;;;;;;;;4951973;28;20046;-59
2022/09/18 09:24:20;;;;;;;1.38;0.52;;;;;;;;;;4967485;28;20089;-56
2022/09/18 09:26:47;;;;;;;1.52;0.55;;;;;;;;;;4946966;28;20146;-61
2022/09/18 09:29:18;;;;;;;1.40;0.60;;;;;;;;;;4948814;28;20070;-58
2022/09/18 09:31:48;;;;;;;2.72;0.60;;;;;;;;;;4963081;28;20073;-56
2022/09/18 09:34:17;;;;;;;4.70;0.70;;;;;;;;;;4982960;28;20065;-65
2022/09/18 09:36:46;;;;;;;3.35;0.50;;;;;;;;;;4946423;28;20065;-63
2022/09/18 09:39:18;;;;;;;1.58;0.47;;;;;;;;;;4963518;28;20181;-63
2022/09/18 09:41:48;;;;;;;1.67;0.52;;;;;;;;;;4963391;28;20047;-56
2022/09/18 09:44:23;;;;;;;2.17;0.47;;;;;;;;;;4966817;28;20099;-63
2022/09/18 09:47:20;;;;;;;3.85;0.57;;;;;;;;;;4950438;28;20104;-64
2022/09/18 09:49:53;;;;;;;0.75;0.50;;;;;;;;;;4872188;29;20088;-57
2022/09/18 09:52:21;;;;;;;1.38;0.45;;;;;;;;;;4943950;28;20055;-63
2022/09/18 09:54:50;;;;;;;2.30;0.60;;;;;;;;;;4969828;28;20051;-63
2022/09/18 09:57:24;;;;;;;8.95;2.60;;;;;;;;;;4964412;28;20138;-69
2022/09/18 09:59:55;;;;;;;2.75;0.70;;;;;;;;;;4968705;28;20046;-63
2022/09/18 10:02:36;;;;;;;1.70;0.60;;;;;;;;;;4950421;28;20210;-68
2022/09/18 10:05:05;;;;;;;2.95;1.10;;;;;;;;;;4947610;29;20110;-58
2022/09/18 10:07:34;;;;;;;1.30;0.45;;;;;;;;;;4944261;28;20162;-56
2022/09/18 10:10:05;;;;;;;2.33;0.75;;;;;;;;;;4948004;29;20055;-62
2022/09/18 10:12:37;;;;;;;3.60;0.90;;;;;;;;;;4952242;28;20059;-63
2022/09/18 10:15:08;;;;;;;3.83;1.02;;;;;;;;;;4962642;28;20058;-59
2022/09/18 10:17:36;;;;;;;2.17;0.60;;;;;;;;;;4961519;28;20221;-58
2022/09/18 10:20:04;;;;;;;4.40;0.95;;;;;;;;;;4948270;28;20047;-64
2022/09/18 10:22:31;;;;;;;2.70;1.00;;;;;;;;;;4945000;28;20040;-67
2022/09/18 10:25:00;;;;;;;2.13;0.90;;;;;;;;;;4963760;28;20118;-64
2022/09/18 10:27:27;;;;;;;3.72;0.63;;;;;;;;;;4962398;28;20058;-67
2022/09/18 10:29:55;;;;;;;1.55;0.60;;;;;;;;;;4967453;28;20054;-60
2022/09/18 10:32:32;;;;;;;3.65;0.90;;;;;;;;;;4962031;28;20078;-60
2022/09/18 10:34:59;;;;;;;2.58;0.90;;;;;;;;;;4966777;28;20137;-67
2022/09/18 10:37:37;;;;;;;4.10;1.35;;;;;;;;;;4960295;28;20121;-69
2022/09/18 10:40:04;;;;;;;;;;;;;;;;;;4947942;29;20065;-63
2022/09/18 10:42:32;;;;;;;3.70;0.90;;;;;;;;;;4948305;28;19936;-71
2022/09/18 10:45:01;;;;;;;1.57;0.60;;;;;;;;;;4967763;28;20090;-72
2022/09/18 10:47:29;;;;;;;4.15;0.77;;;;;;;;;;4969638;28;20062;-69
2022/09/18 10:49:57;;;;;;;2.53;0.70;;;;;;;;;;4958757;28;20073;-59
2022/09/18 10:52:30;;;;;;;9.93;0.75;;;;;;;;;;4968991;28;20055;-60
2022/09/18 10:55:12;;;;;;;5.18;0.70;;;;;;;;;;4948947;28;20106;-60
2022/09/18 10:57:40;;;;;;;2.05;0.60;;;;;;;;;;4964257;28;20046;-65
2022/09/18 11:00:33;;;;;;;2.20;0.70;;;;;;;;;;4947024;28;20075;-61
2022/09/18 11:03:01;;;;;;;2.17;0.57;;;;;;;;;;4950026;29;20047;-55
2022/09/18 11:05:30;;;;;;;7.95;0.90;;;;;;;;;;4945745;28;20074;-56
2022/09/18 11:07:58;;;;;;;2.45;0.65;;;;;;;;;;4950080;29;20137;-61
2022/09/18 11:10:26;;;;;;;6.55;0.73;;;;;;;;;;4962776;28;20075;-59
2022/09/18 11:12:54;;;;;;;4.07;0.70;;;;;;;;;;4968871;28;20097;-57
2022/09/18 11:15:24;;;;;;;3.67;0.60;;;;;;;;;;4964639;28;20055;-59
2022/09/18 11:17:52;;;;;;;3.42;0.70;;;;;;;;;;4967597;28;20051;-62
2022/09/18 11:20:21;;;;;;;3.53;0.60;;;;;;;;;;4953229;28;20047;-62
2022/09/18 11:22:48;;;;;;;5.90;1.00;;;;;;;;;;4950189;28;20298;-52
2022/09/18 11:25:23;;;;;;;3.22;0.73;;;;;;;;;;4956007;28;20054;-67
2022/09/18 11:27:51;;;;;;;3.90;0.77;;;;;;;;;;4969710;28;20058;-65
2022/09/18 11:30:21;;;;;;;2.47;0.70;;;;;;;;;;4956428;28;20059;-69
2022/09/18 11:32:52;;;;;;;2.78;0.70;;;;;;;;;;4950282;28;20143;-66
2022/09/18 11:35:20;;;;;;;9.15;0.80;;;;;;;;;;4946230;28;20059;-60
2022/09/18 11:37:48;;;;;;;1.58;0.43;;;;;;;;;;4950406;28;20083;-60
2022/09/18 11:40:18;;;;;;;1.65;0.68;;;;;;;;;;4947349;28;20153;-61
2022/09/18 11:42:45;;;;;;;0.93;0.60;;;;;;;;;;4956926;28;20135;-60
2022/09/18 11:45:23;;;;;;;3.20;0.80;;;;;;;;;;4964936;28;20047;-56
2022/09/18 11:47:53;;;;;;;1.73;0.60;;;;;;;;;;4963398;28;20055;-68
2022/09/18 11:50:21;;;;;;;0.90;0.60;;;;;;;;;;4947005;28;20046;-67
2022/09/18 11:52:50;;;;;;;2.20;0.63;;;;;;;;;;4948952;28;20074;-63
2022/09/18 11:55:21;;;;;;;1.17;0.47;;;;;;;;;;4947636;28;20055;-71
2022/09/18 11:57:48;;;;;;;1.90;0.80;;;;;;;;;;4968529;28;20165;-71
2022/09/18 12:00:17;;;;;;;2.07;0.60;;;;;;;;;;4969770;28;20130;-65
2022/09/18 12:02:47;;;;;;;1.50;0.70;;;;;;;;;;4966986;28;20054;-68
2022/09/18 12:05:20;;;;;;;3.20;0.70;;;;;;;;;;4968779;28;20150;-73
2022/09/18 12:07:55;;;;;;;2.13;0.50;;;;;;;;;;4964189;28;20059;-64
2022/09/18 12:10:28;;;;;;;3.60;0.70;;;;;;;;;;4950364;29;20114;-59
2022/09/18 12:13:00;;;;;;;2.15;0.70;;;;;;;;;;4946818;28;20130;-68
2022/09/18 12:15:30;;;;;;;4.50;0.60;;;;;;;;;;4950285;29;20051;-56
2022/09/18 12:18:03;;;;;;;1.40;0.55;;;;;;;;;;4958998;28;20047;-64
2022/09/18 12:20:33;;;;;;;0.60;0.40;;;;;;;;;;4951490;28;20118;-61
2022/09/18 12:23:01;;;;;;;0.60;0.45;;;;;;;;;;4947400;28;20051;-60
2022/09/18 12:25:35;;;;;;;11.15;4.18;;;;;;;;;;4967145;28;20055;-66
2022/09/18 12:28:07;;;;;;;3.97;1.35;;;;;;;;;;4971099;28;20075;-52
2022/09/18 12:30:37;;;;;;;2.97;1.13;;;;;;;;;;4935400;28;20047;-53
2022/09/18 12:33:25;;;;;;;3.45;0.90;;;;;;;;;;4974874;28;21779;-63
2022/09/18 12:36:19;;;;;;;2.27;0.80;;;;;;;;;;4968113;28;20054;-66
2022/09/18 12:38:56;;;;;;;2.03;0.47;;;;;;;;;;4926287;28;20078;-67
2022/09/18 12:41:37;;;;;;;0.75;0.50;;;;;;;;;;4967865;28;20151;-61
2022/09/18 12:44:21;;;;;;;2.67;0.50;;;;;;;;;;4963119;28;20054;-70
2022/09/18 12:46:53;;;;;;;4.55;0.52;;;;;;;;;;4968516;28;20055;-61
2022/09/18 12:49:38;;;;;;;1.15;0.52;;;;;;;;;;4948138;28;20098;-59
2022/09/18 12:52:10;;;;;;;3.05;0.50;;;;;;;;;;4949555;28;20118;-60
2022/09/18 12:54:48;;;;;;;7.75;0.82;;;;;;;;;;4963700;28;20139;-69
2022/09/18 12:57:20;;;;;;;4.35;0.50;;;;;;;;;;4969745;28;20067;-64
2022/09/18 12:59:53;;;;;;;3.75;0.65;;;;;;;;;;4964019;28;20054;-57
2022/09/18 13:02:27;;;;;;;3.35;0.70;;;;;;;;;;4967366;28;20058;-60
2022/09/18 13:04:57;;;;;;;2.40;0.80;;;;;;;;;;4963718;28;20067;-66
2022/09/18 13:07:25;;;;;;;4.22;0.70;;;;;;;;;;4967967;28;20054;-63
2022/09/18 13:09:56;;;;;;;1.30;0.60;;;;;;;;;;4948998;28;20074;-64
2022/09/18 13:12:27;;;;;;;1.40;0.57;;;;;;;;;;4948655;28;20062;-58
2022/09/18 13:14:58;;;;;;;2.60;0.52;;;;;;;;;;4958077;28;20058;-67
2022/09/18 13:17:28;;;;;;;2.97;0.68;;;;;;;;;;4967522;28;20046;-64
2022/09/18 13:19:57;;;;;;;4.18;0.55;;;;;;;;;;4958838;28;20058;-64
2022/09/18 13:22:23;;;;;;;;;;;;;;;;;;4968355;28;20051;-63
2022/09/18 13:24:52;;;;;;;3.20;0.70;;;;;;;;;;4953371;28;19930;-62
2022/09/18 13:27:21;;;;;;;2.65;0.40;;;;;;;;;;4948567;29;20069;-63
2022/09/18 13:29:58;;;;;;;2.90;0.57;;;;;;;;;;4952993;28;20069;-61
2022/09/18 13:32:36;;;;;;;0.75;0.47;;;;;;;;;;4967860;28;20078;-62
2022/09/18 13:35:07;;;;;;;2.70;0.68;;;;;;;;;;4963465;28;20283;-64
2022/09/18 13:37:33;;;;;;;1.50;0.40;;;;;;;;;;4967436;28;20066;-66
2022/09/18 13:40:00;;;;;;;2.88;0.60;;;;;;;;;;4952322;28;20074;-71
2022/09/18 13:42:32;;;;;;;3.25;1.00;;;;;;;;;;4965783;28;20050;-64
2022/09/18 13:45:03;;;;;;;5.25;1.27;;;;;;;;;;4956993;28;20051;-62
2022/09/18 13:47:30;;;;;;;3.85;0.88;;;;;;;;;;4966567;28;20138;-69
2022/09/18 13:49:57;;;;;;;3.70;0.95;;;;;;;;;;4971609;28;20074;-72
2022/09/18 13:52:27;;;;;;;4.47;0.75;;;;;;;;;;4958941;28;20121;-70
2022/09/18 13:55:01;;;;;;;3.63;1.13;;;;;;;;;;4958256;28;20054;-70
2022/09/18 13:57:32;;;;;;;2.22;0.60;;;;;;;;;;4956426;28;20062;-63
2022/09/18 14:00:01;;;;;;;2.60;0.80;;;;;;;;;;4969434;28;20059;-63
2022/09/18 14:02:32;;;;;;;4.18;0.93;;;;;;;;;;4956103;28;20043;-70
2022/09/18 14:05:01;;;;;;;3.70;0.60;;;;;;;;;;4959924;28;20121;-67
2022/09/18 14:07:47;;;;;;;4.20;0.98;;;;;;;;;;4955111;28;20087;-68
2022/09/18 14:10:21;;;;;;;1.40;0.50;;;;;;;;;;4982377;28;20054;-72
2022/09/18 14:13:04;;;;;;;4.88;0.82;;;;;;;;;;4953186;28;20062;-67
2022/09/18 14:15:31;;;;;;;3.75;0.70;;;;;;;;;;4961291;28;20082;-61
2022/09/18 14:18:05;;;;;;;2.25;0.80;;;;;;;;;;4973345;28;20051;-73
2022/09/18 14:20:32;;;;;;;2.92;0.88;;;;;;;;;;4962882;28;20073;-71
2022/09/18 14:23:13;;;;;;;3.58;1.15;;;;;;;;;;4955805;28;20063;-70
2022/09/18 14:25:44;;;;;;;1.77;0.98;;;;;;;;;;4976766;28;20054;-62
2022/09/18 14:28:13;;;;;;;3.22;0.90;;;;;;;;;;4961158;28;20060;-63
2022/09/18 14:30:40;;;;;;;3.17;0.77;;;;;;;;;;4967277;28;20134;-68
2022/09/18 14:33:16;;;;;;;2.40;0.80;;;;;;;;;;4955125;28;20047;-67
2022/09/18 14:35:54;;;;;;;5.82;2.03;;;;;;;;;;4959866;28;20051;-66
2022/09/18 14:38:26;;;;;;;3.17;1.08;;;;;;;;;;4959819;28;20051;-74
2022/09/18 14:40:54;;;;;;;5.35;1.00;;;;;;;;;;4959480;28;20051;-65
2022/09/18 14:43:23;;;;;;;3.40;0.93;;;;;;;;;;4962303;28;20074;-73
2022/09/18 14:45:51;;;;;;;;;;;;;;;;;;4978882;28;20057;-64
2022/09/18 14:48:22;;;;;;;4.95;0.98;;;;;;;;;;4955801;28;19926;-64
2022/09/18 14:50:57;;;;;;;2.08;0.60;;;;;;;;;;4961889;28;20075;-73
2022/09/18 14:53:25;;;;;;;1.48;0.65;;;;;;;;;;4943156;28;20113;-68
2022/09/18 14:55:54;;;;;;;2.70;0.67;;;;;;;;;;4943103;29;20059;-69
2022/09/18 14:58:21;;;;;;;2.35;0.70;;;;;;;;;;4940567;28;20313;-70